sensor_id;sensor_type;location;lat;lon;timestamp;pressure;altitude;pressure_sealevel;temperature;humidity
3250;BME280;1637;42.020;23.992;2024-03-23T00:54:23;92838.66;;;0.90;87.93
3250;BME280;1637;42.020;23.992;2024-03-23T00:56:48;92839.19;;;0.95;88.12
3250;BME280;1637;42.020;23.992;2024-03-23T00:59:15;92835.69;;;0.91;87.51
3250;BME280;1637;42.020;23.992;2024-03-23T01:01:41;92830.41;;;0.60;89.42
3250;BME280;1637;42.020;23.992;2024-03-23T01:04:07;92836.91;;;0.50;92.57
3250;BME280;1637;42.020;23.992;2024-03-23T01:06:33;92839.31;;;0.55;92.36
3250;BME280;1637;42.020;23.992;2024-03-23T01:09:00;92830.16;;;0.37;93.55
3250;BME280;1637;42.020;23.992;2024-03-23T01:11:27;92836.66;;;0.27;94.71
3250;BME280;1637;42.020;23.992;2024-03-23T01:13:54;92829.91;;;0.42;96.27
3250;BME280;1637;42.020;23.992;2024-03-23T01:16:21;92824.03;;;0.33;95.70
3250;BME280;1637;42.020;23.992;2024-03-23T01:18:48;92835.00;;;0.35;96.54
3250;BME280;1637;42.020;23.992;2024-03-23T01:21:13;92834.81;;;0.28;96.26
3250;BME280;1637;42.020;23.992;2024-03-23T01:23:40;92823.22;;;0.17;96.56
3250;BME280;1637;42.020;23.992;2024-03-23T01:26:06;92837.44;;;0.28;97.24
3250;BME280;1637;42.020;23.992;2024-03-23T01:28:34;92826.09;;;0.12;97.12
3250;BME280;1637;42.020;23.992;2024-03-23T01:31:00;92820.44;;;-0.03;97.73
3250;BME280;1637;42.020;23.992;2024-03-23T01:33:27;92838.97;;;0.29;97.03
3250;BME280;1637;42.020;23.992;2024-03-23T01:35:53;92824.81;;;0.21;95.86
3250;BME280;1637;42.020;23.992;2024-03-23T01:38:19;92830.97;;;-0.03;95.89
3250;BME280;1637;42.020;23.992;2024-03-23T01:40:45;92829.69;;;0.19;96.19
3250;BME280;1637;42.020;23.992;2024-03-23T01:43:12;92835.19;;;0.02;97.30
3250;BME280;1637;42.020;23.992;2024-03-23T01:45:39;92839.41;;;0.31;95.75
3250;BME280;1637;42.020;23.992;2024-03-23T01:48:06;92826.59;;;0.45;93.57
3250;BME280;1637;42.020;23.992;2024-03-23T01:50:32;92835.94;;;0.71;91.45
3250;BME280;1637;42.020;23.992;2024-03-23T01:53:00;92830.19;;;0.53;91.92
3250;BME280;1637;42.020;23.992;2024-03-23T01:55:26;92797.09;;;-0.16;92.99
3250;BME280;1637;42.020;23.992;2024-03-23T01:57:56;92837.25;;;0.49;93.43
3250;BME280;1637;42.020;23.992;2024-03-23T02:00:22;92832.03;;;0.37;93.23
3250;BME280;1637;42.020;23.992;2024-03-23T02:02:50;92837.63;;;0.35;93.23
3250;BME280;1637;42.020;23.992;2024-03-23T02:05:16;92831.94;;;0.33;94.04
3250;BME280;1637;42.020;23.992;2024-03-23T02:07:43;92738.06;;;-0.03;92.68
3250;BME280;1637;42.020;23.992;2024-03-23T02:10:10;92884.81;;;0.40;93.10
3250;BME280;1637;42.020;23.992;2024-03-23T02:12:38;92833.16;;;-0.05;92.97
3250;BME280;1637;42.020;23.992;2024-03-23T02:15:05;92824.97;;;0.13;93.22
3250;BME280;1637;42.020;23.992;2024-03-23T02:17:33;92734.56;;;-0.07;92.22
3250;BME280;1637;42.020;23.992;2024-03-23T02:20:01;92836.34;;;0.73;90.12
3250;BME280;1637;42.020;23.992;2024-03-23T02:22:35;92837.41;;;0.40;90.54
3250;BME280;1637;42.020;23.992;2024-03-23T02:25:06;92835.91;;;-0.13;94.82
3250;BME280;1637;42.020;23.992;2024-03-23T02:27:32;92835.28;;;-0.35;96.26
3250;BME280;1637;42.020;23.992;2024-03-23T02:29:58;92821.69;;;-0.24;95.46
3250;BME280;1637;42.020;23.992;2024-03-23T02:32:25;92833.63;;;-0.39;97.85
3250;BME280;1637;42.020;23.992;2024-03-23T02:34:51;92834.00;;;-0.53;98.95
3250;BME280;1637;42.020;23.992;2024-03-23T02:37:18;92831.00;;;-0.39;99.18
3250;BME280;1637;42.020;23.992;2024-03-23T02:39:43;92834.84;;;-0.37;99.41
3250;BME280;1637;42.020;23.992;2024-03-23T02:42:11;92841.94;;;0.27;95.63
3250;BME280;1637;42.020;23.992;2024-03-23T02:44:37;92833.59;;;-0.15;95.28
3250;BME280;1637;42.020;23.992;2024-03-23T02:47:05;92830.88;;;-0.18;95.96
3250;BME280;1637;42.020;23.992;2024-03-23T02:49:30;92835.34;;;0.33;92.88
3250;BME280;1637;42.020;23.992;2024-03-23T02:51:57;92831.09;;;0.45;91.74
3250;BME280;1637;42.020;23.992;2024-03-23T02:54:23;92831.03;;;0.41;91.44
3250;BME280;1637;42.020;23.992;2024-03-23T02:56:50;92827.66;;;0.28;91.53
3250;BME280;1637;42.020;23.992;2024-03-23T02:59:17;92807.88;;;-0.21;93.95
3250;BME280;1637;42.020;23.992;2024-03-23T03:01:43;92832.78;;;0.09;94.58
3250;BME280;1637;42.020;23.992;2024-03-23T03:04:09;92821.28;;;0.02;94.49
3250;BME280;1637;42.020;23.992;2024-03-23T03:06:36;92827.91;;;0.23;92.67
3250;BME280;1637;42.020;23.992;2024-03-23T03:09:02;92787.00;;;0.14;91.84
3250;BME280;1637;42.020;23.992;2024-03-23T03:11:30;92836.06;;;0.18;92.88
3250;BME280;1637;42.020;23.992;2024-03-23T03:13:55;92834.34;;;-0.02;93.62
3250;BME280;1637;42.020;23.992;2024-03-23T03:16:23;92828.75;;;-0.01;95.02
3250;BME280;1637;42.020;23.992;2024-03-23T03:18:49;92823.78;;;0.10;94.36
3250;BME280;1637;42.020;23.992;2024-03-23T03:21:17;92831.69;;;0.10;92.86
3250;BME280;1637;42.020;23.992;2024-03-23T03:23:44;92827.69;;;-0.12;94.25
3250;BME280;1637;42.020;23.992;2024-03-23T03:26:11;92831.03;;;-0.51;96.58
3250;BME280;1637;42.020;23.992;2024-03-23T03:28:37;92828.41;;;-0.51;96.92
3250;BME280;1637;42.020;23.992;2024-03-23T03:31:04;92828.13;;;-0.10;95.61
3250;BME280;1637;42.020;23.992;2024-03-23T03:33:31;92833.75;;;-0.23;94.23
3250;BME280;1637;42.020;23.992;2024-03-23T03:35:58;92808.03;;;-0.66;95.61
3250;BME280;1637;42.020;23.992;2024-03-23T03:38:24;92823.91;;;-0.75;97.66
3250;BME280;1637;42.020;23.992;2024-03-23T03:40:51;92827.75;;;-0.60;97.59
3250;BME280;1637;42.020;23.992;2024-03-23T03:43:18;92836.72;;;-0.98;99.31
3250;BME280;1637;42.020;23.992;2024-03-23T03:45:51;92832.47;;;-0.78;99.33
3250;BME280;1637;42.020;23.992;2024-03-23T03:48:17;92832.81;;;-0.67;99.05
3250;BME280;1637;42.020;23.992;2024-03-23T03:50:45;92830.38;;;-0.73;99.08
3250;BME280;1637;42.020;23.992;2024-03-23T03:53:12;92830.50;;;-0.93;99.23
3250;BME280;1637;42.020;23.992;2024-03-23T03:55:40;92817.44;;;-1.02;98.09
3250;BME280;1637;42.020;23.992;2024-03-23T03:58:05;92843.44;;;-0.64;96.92
3250;BME280;1637;42.020;23.992;2024-03-23T04:00:32;92837.19;;;-0.72;97.10
3250;BME280;1637;42.020;23.992;2024-03-23T04:02:58;92838.91;;;-1.00;98.28
3250;BME280;1637;42.020;23.992;2024-03-23T04:05:25;92852.41;;;-0.53;95.97
3250;BME280;1637;42.020;23.992;2024-03-23T04:07:52;92851.94;;;-1.04;98.23
3250;BME280;1637;42.020;23.992;2024-03-23T04:10:19;92845.28;;;-0.77;98.09
3250;BME280;1637;42.020;23.992;2024-03-23T04:12:45;92850.44;;;-0.56;97.45
3250;BME280;1637;42.020;23.992;2024-03-23T04:15:11;92852.84;;;-0.87;97.17
3250;BME280;1637;42.020;23.992;2024-03-23T04:17:37;92846.28;;;-0.69;97.85
3250;BME280;1637;42.020;23.992;2024-03-23T04:20:05;92845.81;;;-0.59;95.89
3250;BME280;1637;42.020;23.992;2024-03-23T04:22:36;92851.19;;;-0.80;97.92
3250;BME280;1637;42.020;23.992;2024-03-23T04:25:05;92866.31;;;-0.89;97.97
3250;BME280;1637;42.020;23.992;2024-03-23T04:27:32;92853.38;;;-0.82;97.40
3250;BME280;1637;42.020;23.992;2024-03-23T04:29:59;92854.38;;;-0.74;97.80
3250;BME280;1637;42.020;23.992;2024-03-23T04:32:26;92851.66;;;-0.65;95.18
3250;BME280;1637;42.020;23.992;2024-03-23T04:34:54;92868.19;;;-0.53;95.25
3250;BME280;1637;42.020;23.992;2024-03-23T04:37:20;92883.31;;;-0.38;93.16
3250;BME280;1637;42.020;23.992;2024-03-23T04:39:46;92802.94;;;-0.23;91.37
3250;BME280;1637;42.020;23.992;2024-03-23T04:42:15;92870.13;;;0.39;90.68
3250;BME280;1637;42.020;23.992;2024-03-23T04:44:42;92921.72;;;0.96;86.65
3250;BME280;1637;42.020;23.992;2024-03-23T04:47:10;92836.03;;;0.74;84.78
3250;BME280;1637;42.020;23.992;2024-03-23T04:49:37;92878.59;;;1.51;82.87
3250;BME280;1637;42.020;23.992;2024-03-23T04:52:04;92876.63;;;1.48;81.37
3250;BME280;1637;42.020;23.992;2024-03-23T04:54:31;92881.91;;;2.34;79.14
3250;BME280;1637;42.020;23.992;2024-03-23T04:56:59;92886.09;;;2.54;76.57
3250;BME280;1637;42.020;23.992;2024-03-23T04:59:27;92889.13;;;3.14;74.36
3250;BME280;1637;42.020;23.992;2024-03-23T05:01:52;92883.38;;;4.03;70.64
3250;BME280;1637;42.020;23.992;2024-03-23T05:04:19;92888.28;;;3.78;71.37
3250;BME280;1637;42.020;23.992;2024-03-23T05:06:45;92890.25;;;4.08;69.22
3250;BME280;1637;42.020;23.992;2024-03-23T05:09:12;92868.69;;;4.36;69.78
3250;BME280;1637;42.020;23.992;2024-03-23T05:11:38;92885.84;;;4.79;68.01
3250;BME280;1637;42.020;23.992;2024-03-23T05:14:05;92890.34;;;5.45;65.53
3250;BME280;1637;42.020;23.992;2024-03-23T05:16:32;92890.09;;;6.02;64.21
3250;BME280;1637;42.020;23.992;2024-03-23T05:18:58;92886.69;;;6.74;61.86
3250;BME280;1637;42.020;23.992;2024-03-23T05:21:24;92888.03;;;6.36;62.21
3250;BME280;1637;42.020;23.992;2024-03-23T05:23:51;92891.38;;;7.02;60.60
3250;BME280;1637;42.020;23.992;2024-03-23T05:26:17;92870.53;;;5.83;61.59
3250;BME280;1637;42.020;23.992;2024-03-23T05:28:44;92890.25;;;7.06;60.55
3250;BME280;1637;42.020;23.992;2024-03-23T05:31:09;92893.78;;;7.71;59.15
3250;BME280;1637;42.020;23.992;2024-03-23T05:33:37;92894.81;;;7.06;60.36
3250;BME280;1637;42.020;23.992;2024-03-23T05:36:04;92938.78;;;8.01;57.87
3250;BME280;1637;42.020;23.992;2024-03-23T05:38:34;92892.69;;;7.86;58.86
3250;BME280;1637;42.020;23.992;2024-03-23T05:41:00;92894.31;;;6.75;61.46
3250;BME280;1637;42.020;23.992;2024-03-23T05:43:27;92886.56;;;8.14;58.40
3250;BME280;1637;42.020;23.992;2024-03-23T05:45:54;92886.56;;;7.78;59.55
3250;BME280;1637;42.020;23.992;2024-03-23T05:48:21;92885.31;;;8.75;57.01
3250;BME280;1637;42.020;23.992;2024-03-23T05:50:48;92882.50;;;9.18;55.25
3250;BME280;1637;42.020;23.992;2024-03-23T05:53:15;92867.16;;;8.03;57.53
3250;BME280;1637;42.020;23.992;2024-03-23T05:55:41;92885.16;;;9.21;55.58
3250;BME280;1637;42.020;23.992;2024-03-23T05:58:08;92880.03;;;8.65;55.98
3250;BME280;1637;42.020;23.992;2024-03-23T06:00:34;92875.50;;;9.42;54.72
3250;BME280;1637;42.020;23.992;2024-03-23T06:03:01;92882.31;;;10.09;53.65
3250;BME280;1637;42.020;23.992;2024-03-23T06:05:27;92882.72;;;10.04;52.80
3250;BME280;1637;42.020;23.992;2024-03-23T06:07:55;92873.47;;;10.15;53.47
3250;BME280;1637;42.020;23.992;2024-03-23T06:10:20;92861.59;;;9.64;54.45
3250;BME280;1637;42.020;23.992;2024-03-23T06:12:47;92880.13;;;11.13;50.54
3250;BME280;1637;42.020;23.992;2024-03-23T06:15:14;92871.81;;;11.34;49.99
3250;BME280;1637;42.020;23.992;2024-03-23T06:17:41;92873.56;;;10.83;51.32
3250;BME280;1637;42.020;23.992;2024-03-23T06:20:07;92871.56;;;10.57;50.96
3250;BME280;1637;42.020;23.992;2024-03-23T06:22:35;92868.94;;;10.87;51.05
3250;BME280;1637;42.020;23.992;2024-03-23T06:25:03;92868.56;;;10.85;50.26
3250;BME280;1637;42.020;23.992;2024-03-23T06:27:29;92877.88;;;11.95;48.33
3250;BME280;1637;42.020;23.992;2024-03-23T06:29:57;92865.44;;;11.24;50.86
3250;BME280;1637;42.020;23.992;2024-03-23T06:32:24;92862.94;;;11.10;50.64
3250;BME280;1637;42.020;23.992;2024-03-23T06:34:49;92873.44;;;11.28;51.18
3250;BME280;1637;42.020;23.992;2024-03-23T06:37:16;92874.06;;;11.66;50.29
3250;BME280;1637;42.020;23.992;2024-03-23T06:39:42;92876.88;;;11.86;49.74
3250;BME280;1637;42.020;23.992;2024-03-23T06:42:10;92869.50;;;12.17;48.29
3250;BME280;1637;42.020;23.992;2024-03-23T06:44:36;92866.16;;;12.09;48.25
3250;BME280;1637;42.020;23.992;2024-03-23T06:47:03;92868.81;;;12.36;48.19
3250;BME280;1637;42.020;23.992;2024-03-23T06:49:28;92865.56;;;11.44;50.42
3250;BME280;1637;42.020;23.992;2024-03-23T06:51:55;92862.25;;;11.90;49.84
3250;BME280;1637;42.020;23.992;2024-03-23T06:54:21;92861.09;;;13.01;47.39
3250;BME280;1637;42.020;23.992;2024-03-23T06:56:48;92863.03;;;12.14;48.30
3250;BME280;1637;42.020;23.992;2024-03-23T06:59:15;92865.09;;;13.13;47.17
3250;BME280;1637;42.020;23.992;2024-03-23T07:01:42;92853.47;;;13.19;47.54
3250;BME280;1637;42.020;23.992;2024-03-23T07:04:07;92834.44;;;13.30;47.07
3250;BME280;1637;42.020;23.992;2024-03-23T07:06:34;92845.78;;;12.78;48.33
3250;BME280;1637;42.020;23.992;2024-03-23T07:09:00;92838.13;;;13.88;45.23
3250;BME280;1637;42.020;23.992;2024-03-23T07:11:26;92837.88;;;13.99;45.22
3250;BME280;1637;42.020;23.992;2024-03-23T07:13:53;92852.44;;;14.50;43.66
3250;BME280;1637;42.020;23.992;2024-03-23T07:16:22;92853.28;;;14.92;43.56
3250;BME280;1637;42.020;23.992;2024-03-23T07:18:50;92823.06;;;14.07;44.76
3250;BME280;1637;42.020;23.992;2024-03-23T07:21:17;92848.81;;;14.57;44.40
3250;BME280;1637;42.020;23.992;2024-03-23T07:23:42;92828.78;;;14.25;44.10
3250;BME280;1637;42.020;23.992;2024-03-23T07:26:11;92882.41;;;14.68;44.49
3250;BME280;1637;42.020;23.992;2024-03-23T07:28:37;92847.88;;;15.75;41.67
3250;BME280;1637;42.020;23.992;2024-03-23T07:31:10;92848.25;;;15.07;43.64
3250;BME280;1637;42.020;23.992;2024-03-23T07:33:41;92846.34;;;15.74;42.00
3250;BME280;1637;42.020;23.992;2024-03-23T07:36:08;92845.47;;;16.15;41.75
3250;BME280;1637;42.020;23.992;2024-03-23T07:38:34;92833.28;;;15.98;40.31
3250;BME280;1637;42.020;23.992;2024-03-23T07:41:05;92835.41;;;16.03;40.55
3250;BME280;1637;42.020;23.992;2024-03-23T07:43:31;92837.63;;;16.90;38.96
3250;BME280;1637;42.020;23.992;2024-03-23T07:45:58;92832.91;;;16.81;39.84
3250;BME280;1637;42.020;23.992;2024-03-23T07:48:24;92827.72;;;15.51;41.75
3250;BME280;1637;42.020;23.992;2024-03-23T07:51:02;92816.94;;;16.14;40.93
3250;BME280;1637;42.020;23.992;2024-03-23T07:53:28;92818.41;;;16.28;40.78
3250;BME280;1637;42.020;23.992;2024-03-23T07:55:56;92822.47;;;16.93;40.04
3250;BME280;1637;42.020;23.992;2024-03-23T07:58:23;92774.09;;;13.63;44.94
3250;BME280;1637;42.020;23.992;2024-03-23T08:00:50;92796.94;;;15.48;41.70
3250;BME280;1637;42.020;23.992;2024-03-23T08:03:16;92821.59;;;16.48;40.35
3250;BME280;1637;42.020;23.992;2024-03-23T08:05:42;92807.56;;;15.68;42.39
3250;BME280;1637;42.020;23.992;2024-03-23T08:08:09;92804.06;;;17.09;38.47
3250;BME280;1637;42.020;23.992;2024-03-23T08:10:37;92799.63;;;17.15;38.42
3250;BME280;1637;42.020;23.992;2024-03-23T08:13:03;92788.47;;;15.75;41.66
3250;BME280;1637;42.020;23.992;2024-03-23T08:15:31;92793.16;;;16.09;41.27
3250;BME280;1637;42.020;23.992;2024-03-23T08:17:58;92795.94;;;17.84;38.15
3250;BME280;1637;42.020;23.992;2024-03-23T08:20:25;92790.50;;;17.22;39.20
3250;BME280;1637;42.020;23.992;2024-03-23T08:22:51;92795.81;;;17.97;37.29
3250;BME280;1637;42.020;23.992;2024-03-23T08:25:19;92791.03;;;18.19;36.80
3250;BME280;1637;42.020;23.992;2024-03-23T08:27:45;92785.09;;;17.00;38.92
3250;BME280;1637;42.020;23.992;2024-03-23T08:30:12;92781.91;;;17.55;37.93
3250;BME280;1637;42.020;23.992;2024-03-23T08:32:38;92782.66;;;17.77;37.07
3250;BME280;1637;42.020;23.992;2024-03-23T08:35:05;92774.63;;;17.11;38.50
3250;BME280;1637;42.020;23.992;2024-03-23T08:37:32;92773.94;;;16.98;38.84
3250;BME280;1637;42.020;23.992;2024-03-23T08:39:59;92773.41;;;18.05;37.37
3250;BME280;1637;42.020;23.992;2024-03-23T08:42:26;92767.63;;;17.54;37.95
3250;BME280;1637;42.020;23.992;2024-03-23T08:44:53;92771.94;;;18.32;36.47
3250;BME280;1637;42.020;23.992;2024-03-23T08:47:18;92760.00;;;18.02;35.43
3250;BME280;1637;42.020;23.992;2024-03-23T08:49:45;92758.78;;;17.32;37.45
3250;BME280;1637;42.020;23.992;2024-03-23T08:52:11;92748.50;;;17.89;36.42
3250;BME280;1637;42.020;23.992;2024-03-23T08:54:37;92749.19;;;18.38;35.78
3250;BME280;1637;42.020;23.992;2024-03-23T08:57:03;92747.69;;;18.28;35.41
3250;BME280;1637;42.020;23.992;2024-03-23T08:59:32;92744.94;;;18.10;35.78
3250;BME280;1637;42.020;23.992;2024-03-23T09:01:57;92741.34;;;18.04;36.28
3250;BME280;1637;42.020;23.992;2024-03-23T09:04:24;92742.56;;;18.39;34.99
3250;BME280;1637;42.020;23.992;2024-03-23T09:06:50;92735.53;;;18.60;35.73
3250;BME280;1637;42.020;23.992;2024-03-23T09:09:17;92727.34;;;18.97;33.88
3250;BME280;1637;42.020;23.992;2024-03-23T09:11:43;92733.38;;;18.55;33.09
3250;BME280;1637;42.020;23.992;2024-03-23T09:14:09;92718.56;;;17.92;34.70
3250;BME280;1637;42.020;23.992;2024-03-23T09:16:36;92719.84;;;18.28;35.68
3250;BME280;1637;42.020;23.992;2024-03-23T09:19:03;92716.34;;;18.36;35.43
3250;BME280;1637;42.020;23.992;2024-03-23T09:21:29;92711.19;;;19.02;34.48
3250;BME280;1637;42.020;23.992;2024-03-23T09:23:56;92713.78;;;18.24;34.64
3250;BME280;1637;42.020;23.992;2024-03-23T09:26:21;92699.56;;;17.34;34.39
3250;BME280;1637;42.020;23.992;2024-03-23T09:28:48;92692.75;;;16.11;35.68
3250;BME280;1637;42.020;23.992;2024-03-23T09:31:14;92694.75;;;17.78;34.02
3250;BME280;1637;42.020;23.992;2024-03-23T09:33:42;92689.53;;;18.20;32.84
3250;BME280;1637;42.020;23.992;2024-03-23T09:36:09;92684.72;;;18.06;31.05
3250;BME280;1637;42.020;23.992;2024-03-23T09:38:36;92695.56;;;18.33;31.66
3250;BME280;1637;42.020;23.992;2024-03-23T09:41:07;92680.06;;;18.43;32.52
3250;BME280;1637;42.020;23.992;2024-03-23T09:43:34;92674.09;;;18.99;31.92
3250;BME280;1637;42.020;23.992;2024-03-23T09:46:01;92670.66;;;17.71;33.37
3250;BME280;1637;42.020;23.992;2024-03-23T09:48:28;92666.78;;;17.41;33.42
3250;BME280;1637;42.020;23.992;2024-03-23T09:50:55;92588.56;;;17.34;34.15
3250;BME280;1637;42.020;23.992;2024-03-23T09:53:22;92663.06;;;17.57;32.98
3250;BME280;1637;42.020;23.992;2024-03-23T09:55:48;92654.06;;;16.36;35.09
3250;BME280;1637;42.020;23.992;2024-03-23T09:58:17;92649.47;;;16.67;34.32
3250;BME280;1637;42.020;23.992;2024-03-23T10:00:43;92630.53;;;16.45;32.85
3250;BME280;1637;42.020;23.992;2024-03-23T10:03:10;92646.47;;;15.87;34.53
3250;BME280;1637;42.020;23.992;2024-03-23T10:05:37;92632.44;;;16.58;33.72
3250;BME280;1637;42.020;23.992;2024-03-23T10:08:17;92626.50;;;16.50;34.50
3250;BME280;1637;42.020;23.992;2024-03-23T10:10:45;92632.94;;;16.43;35.61
3250;BME280;1637;42.020;23.992;2024-03-23T10:13:23;92634.78;;;17.08;33.59
3250;BME280;1637;42.020;23.992;2024-03-23T10:15:55;92625.56;;;16.00;34.39
3250;BME280;1637;42.020;23.992;2024-03-23T10:18:22;92629.88;;;17.25;32.18
3250;BME280;1637;42.020;23.992;2024-03-23T10:20:51;92612.25;;;17.70;31.88
3250;BME280;1637;42.020;23.992;2024-03-23T10:23:19;92618.88;;;17.69;30.33
3250;BME280;1637;42.020;23.992;2024-03-23T10:25:45;92609.56;;;17.88;29.94
3250;BME280;1637;42.020;23.992;2024-03-23T10:28:12;92607.84;;;17.45;28.73
3250;BME280;1637;42.020;23.992;2024-03-23T10:30:38;92602.44;;;16.96;29.83
3250;BME280;1637;42.020;23.992;2024-03-23T10:33:08;92606.72;;;16.31;29.40
3250;BME280;1637;42.020;23.992;2024-03-23T10:35:34;92554.50;;;16.96;28.36
3250;BME280;1637;42.020;23.992;2024-03-23T10:38:04;92607.34;;;17.28;28.76
3250;BME280;1637;42.020;23.992;2024-03-23T10:40:34;92602.66;;;17.87;28.73
3250;BME280;1637;42.020;23.992;2024-03-23T10:43:03;92587.88;;;17.88;28.45
3250;BME280;1637;42.020;23.992;2024-03-23T10:45:29;92596.31;;;18.27;27.54
3250;BME280;1637;42.020;23.992;2024-03-23T10:47:56;92585.97;;;18.76;26.64
3250;BME280;1637;42.020;23.992;2024-03-23T10:50:22;92581.72;;;17.78;25.75
3250;BME280;1637;42.020;23.992;2024-03-23T10:52:49;92572.63;;;17.36;28.65
3250;BME280;1637;42.020;23.992;2024-03-23T10:55:17;92575.22;;;17.58;27.59
3250;BME280;1637;42.020;23.992;2024-03-23T10:57:50;92554.97;;;17.13;27.41
3250;BME280;1637;42.020;23.992;2024-03-23T11:00:17;92563.06;;;16.11;28.66
3250;BME280;1637;42.020;23.992;2024-03-23T11:02:44;92566.06;;;16.97;28.77
3250;BME280;1637;42.020;23.992;2024-03-23T11:05:28;92553.31;;;16.35;28.70
3250;BME280;1637;42.020;23.992;2024-03-23T11:07:56;92548.19;;;17.08;29.04
3250;BME280;1637;42.020;23.992;2024-03-23T11:10:25;92551.81;;;17.14;28.29
3250;BME280;1637;42.020;23.992;2024-03-23T11:12:54;92522.19;;;15.56;30.11
3250;BME280;1637;42.020;23.992;2024-03-23T11:15:20;92537.13;;;16.13;29.25
3250;BME280;1637;42.020;23.992;2024-03-23T11:18:02;92528.97;;;15.82;29.61
3250;BME280;1637;42.020;23.992;2024-03-23T11:20:31;92555.72;;;15.90;29.96
3250;BME280;1637;42.020;23.992;2024-03-23T11:22:59;92521.25;;;16.56;29.23
3250;BME280;1637;42.020;23.992;2024-03-23T11:25:26;92517.44;;;16.75;29.20
3250;BME280;1637;42.020;23.992;2024-03-23T11:27:55;92404.41;;;16.61;29.25
3250;BME280;1637;42.020;23.992;2024-03-23T11:30:23;92477.88;;;17.54;28.12
3250;BME280;1637;42.020;23.992;2024-03-23T11:32:51;92496.31;;;16.52;28.16
3250;BME280;1637;42.020;23.992;2024-03-23T11:35:28;92499.19;;;16.26;29.45
3250;BME280;1637;42.020;23.992;2024-03-23T11:38:03;92490.34;;;17.24;29.14
3250;BME280;1637;42.020;23.992;2024-03-23T11:40:30;92491.56;;;17.32;28.73
3250;BME280;1637;42.020;23.992;2024-03-23T11:43:00;92486.38;;;16.48;29.04
3250;BME280;1637;42.020;23.992;2024-03-23T11:45:27;92491.69;;;17.10;28.32
3250;BME280;1637;42.020;23.992;2024-03-23T11:48:05;92472.31;;;17.39;28.06
3250;BME280;1637;42.020;23.992;2024-03-23T11:50:31;92472.72;;;17.93;26.99
3250;BME280;1637;42.020;23.992;2024-03-23T11:53:22;92469.25;;;18.01;28.02
3250;BME280;1637;42.020;23.992;2024-03-23T11:55:49;92434.09;;;17.46;26.72
3250;BME280;1637;42.020;23.992;2024-03-23T11:58:18;92407.22;;;17.25;27.65
3250;BME280;1637;42.020;23.992;2024-03-23T12:00:50;92450.56;;;18.12;28.11
3250;BME280;1637;42.020;23.992;2024-03-23T12:03:19;92463.47;;;18.27;27.04
3250;BME280;1637;42.020;23.992;2024-03-23T12:05:48;92457.13;;;17.69;27.84
3250;BME280;1637;42.020;23.992;2024-03-23T12:08:20;92454.59;;;17.66;28.98
3250;BME280;1637;42.020;23.992;2024-03-23T12:10:48;92450.50;;;17.43;28.08
3250;BME280;1637;42.020;23.992;2024-03-23T12:13:21;92431.25;;;17.41;28.22
3250;BME280;1637;42.020;23.992;2024-03-23T12:15:50;92437.56;;;17.38;28.11
3250;BME280;1637;42.020;23.992;2024-03-23T12:18:17;92430.50;;;17.40;27.58
3250;BME280;1637;42.020;23.992;2024-03-23T12:20:49;92467.19;;;17.78;26.94
3250;BME280;1637;42.020;23.992;2024-03-23T12:23:16;92429.59;;;18.55;27.29
3250;BME280;1637;42.020;23.992;2024-03-23T12:25:42;92434.91;;;18.49;27.48
3250;BME280;1637;42.020;23.992;2024-03-23T12:28:08;92423.69;;;17.81;27.41
3250;BME280;1637;42.020;23.992;2024-03-23T12:30:39;92395.75;;;17.39;27.39
3250;BME280;1637;42.020;23.992;2024-03-23T12:33:06;92406.88;;;17.41;28.05
3250;BME280;1637;42.020;23.992;2024-03-23T12:35:32;92412.91;;;17.45;27.51
3250;BME280;1637;42.020;23.992;2024-03-23T12:37:58;92413.03;;;17.69;27.85
3250;BME280;1637;42.020;23.992;2024-03-23T12:40:24;92402.66;;;17.67;28.06
3250;BME280;1637;42.020;23.992;2024-03-23T12:42:52;92398.63;;;17.35;28.55
3250;BME280;1637;42.020;23.992;2024-03-23T12:45:17;92389.56;;;17.47;28.42
3250;BME280;1637;42.020;23.992;2024-03-23T12:47:46;92395.91;;;17.26;28.55
3250;BME280;1637;42.020;23.992;2024-03-23T12:50:11;92392.13;;;17.60;28.59
3250;BME280;1637;42.020;23.992;2024-03-23T12:52:38;92388.25;;;17.43;28.20
3250;BME280;1637;42.020;23.992;2024-03-23T12:55:04;92384.94;;;17.21;28.06
3250;BME280;1637;42.020;23.992;2024-03-23T12:57:31;92395.47;;;17.09;28.26
3250;BME280;1637;42.020;23.992;2024-03-23T12:59:57;92380.75;;;17.20;29.38
3250;BME280;1637;42.020;23.992;2024-03-23T13:02:24;92377.28;;;16.92;28.61
3250;BME280;1637;42.020;23.992;2024-03-23T13:04:52;92194.03;;;15.55;28.96
3250;BME280;1637;42.020;23.992;2024-03-23T13:07:20;92376.53;;;16.91;28.93
3250;BME280;1637;42.020;23.992;2024-03-23T13:09:47;92323.16;;;16.55;29.97
3250;BME280;1637;42.020;23.992;2024-03-23T13:12:14;92371.44;;;17.02;29.76
3250;BME280;1637;42.020;23.992;2024-03-23T13:14:39;92373.06;;;17.09;29.07
3250;BME280;1637;42.020;23.992;2024-03-23T13:17:06;92360.75;;;16.99;29.22
3250;BME280;1637;42.020;23.992;2024-03-23T13:19:33;92359.25;;;16.98;30.60
3250;BME280;1637;42.020;23.992;2024-03-23T13:22:01;92363.31;;;16.93;29.36
3250;BME280;1637;42.020;23.992;2024-03-23T13:24:27;92345.28;;;16.81;30.15
3250;BME280;1637;42.020;23.992;2024-03-23T13:26:55;92358.06;;;16.80;29.88
3250;BME280;1637;42.020;23.992;2024-03-23T13:29:21;92351.72;;;16.83;28.64
3250;BME280;1637;42.020;23.992;2024-03-23T13:31:50;92353.53;;;16.77;29.35
3250;BME280;1637;42.020;23.992;2024-03-23T13:34:16;92349.63;;;16.88;29.60
3250;BME280;1637;42.020;23.992;2024-03-23T13:36:43;92351.00;;;16.83;29.42
3250;BME280;1637;42.020;23.992;2024-03-23T13:39:10;92343.75;;;16.71;29.70
3250;BME280;1637;42.020;23.992;2024-03-23T13:41:38;92347.53;;;17.01;29.36
3250;BME280;1637;42.020;23.992;2024-03-23T13:44:04;92342.56;;;16.90;29.26
3250;BME280;1637;42.020;23.992;2024-03-23T13:46:31;92342.56;;;16.99;29.22
3250;BME280;1637;42.020;23.992;2024-03-23T13:48:57;92334.13;;;16.88;29.85
3250;BME280;1637;42.020;23.992;2024-03-23T13:51:25;92285.44;;;16.52;29.75
3250;BME280;1637;42.020;23.992;2024-03-23T13:53:52;92333.84;;;16.77;29.73
3250;BME280;1637;42.020;23.992;2024-03-23T13:56:21;92328.09;;;16.38;30.16
3250;BME280;1637;42.020;23.992;2024-03-23T13:58:47;92271.69;;;16.00;31.89
3250;BME280;1637;42.020;23.992;2024-03-23T14:01:14;92327.47;;;16.43;32.38
3250;BME280;1637;42.020;23.992;2024-03-23T14:03:40;92335.47;;;16.56;31.88
3250;BME280;1637;42.020;23.992;2024-03-23T14:06:07;92316.34;;;16.32;31.72